Weather at Malili Airport [CLOSED]

Public forecast

Using degrees Celsius for public forecast. Weather courtesy of forecast.io.

Closest aviation weather report (METAR) to Malili Airport

Closest report is Sultan Aji Muhammad Sulaiman Sepinggan International Airport, 265.1 nm (490.9 km) WNW.

2024/06/14 12:00 (retrieved 39 minutes ago)

WALL 141200Z 00000KT 9000 FEW020 28/26 Q1008 NOSIG

Closest aviation forecast (TAF) to Malili Airport

Closest forecast is Soroako Airport, 16.6 nm (30.8 km) ENE.

2024/06/14 12:50 (retrieved 0 seconds ago)

TAF WAWS 141100Z 1412/1424 09005KT 8000 FEW018